Pryor, OK

3:44 PM CDT on August 24, 2016 (GMT -0500)
Twin Creeks | | Change Station

Elev 627 ft 36.29 °N, 95.35 °W | Updated 23 seconds ago

Scattered Clouds
Scattered Clouds
98.2 °F
Feels Like 106 °F
N
9.9
Wind Variable Wind from ENE

Today
High -- | Low -- °F
--% Chance of Precip.
Yesterday
High -- | Low -- °F
Precip. -- in
Pressure 30.00 in
Visibility 10.0 miles
Clouds Scattered Clouds 5500 ft
Heat Index 106 °F
Dew Point 70 °F
Humidity 41%
Rainfall 0.00 in
Snow Depth Not available.
6:46 AM 7:59 PM
Waning Gibbous, 53% visible
METAR KGCM 242035Z AUTO 17011G17KT 10SM SCT055 35/20 A3000 RMK AO2
Pressure 30.00 in
Visibility 10.0 miles
Clouds Scattered Clouds 5500 ft
Heat Index 106 °F
Dew Point 70 °F
Humidity 41%
Rainfall 0.00 in
Snow Depth Not available.
6:46 AM 7:59 PM
Waning Gibbous, 53% visible
METAR KGCM 242035Z AUTO 17011G17KT 10SM SCT055 35/20 A3000 RMK AO2

10-Day Weather Forecast

Almanac

Astronomy

Aug. 24, 2016 Rise Set
Actual Time
Civil Twilight
Nautical Twilight
Astronomical Twilight
Moon
Length of Visible Light
Length of Day
Tomorrow will be .
, % of the Moon is Illuminated

Today's Extremes

State Highs State Lows

Community

WunderPhotos

Upload Photos

1,934,710 photos uploaded!

WunderBlog® & News

Nearby

Air Quality

  Air Quality AQ Index Pollutant
Not available.

Snow Depth

Station Depth Elevation

Earthquake Activity

City Distance Mag. Time & Date
Minimum magnitude displayed is 2.5.

Coastal Water Temperatures

Place Temperature

Stations

Nearby Weather Stations

Station Location Temp. Windchill Dew Point Humidity Wind Precip. Elev Updated Type
                   

Watches & Warnings

There are currently no watches in effect.